• Join FlightAware (Why Join?)
  • Login
  • US Flag 
03:07PM EDT


 

Airport Tracker/Info


-or-


 

Live Flight TrackerFlight Track Log ✈ FIN666 ✈ 10-Jun-2014 ✈ EKCH / CPH - EFHK / HEL

Flight Track Log - Related Links

Times and Time Zones

All times are in EDT time to prevent confusion due to time zone crossing. See the FIN666 flight status page for this flight to view local times or setup timezone preferences in your user account.

Time Position Orientation Groundspeed Altitude Reporting Facility
EDT Latitude Longitude Course Direction KTS MPH feet Rate Location/Type
07:30AM 55.8244 13.0824 49° Northeast  Level Estimated
07:31AM 55.8929 13.2255 49° Northeast  Level Estimated
07:32AM 55.9613 13.3692 50° Northeast  Level Estimated
07:33AM 56.0294 13.5134 50° Northeast  Level Estimated
07:34AM 56.0974 13.6580 50° Northeast  Level Estimated
07:35AM 56.1652 13.8032 50° Northeast  Level Estimated
07:36AM 56.2329 13.9489 50° Northeast  Level Estimated
07:37AM 56.3041 14.1033 50° Northeast  Level Estimated
07:38AM 56.3752 14.2582 50° Northeast  Level Estimated
07:39AM 56.4460 14.4137 50° Northeast  Level Estimated
07:40AM 56.5167 14.5698 51° Northeast  Level Estimated
07:41AM 56.5871 14.7264 51° Northeast  Level Estimated
07:42AM 56.6574 14.8837 51° Northeast  Level Estimated
07:43AM 56.7274 15.0415 51° Northeast  Level Estimated
07:44AM 56.7973 15.1999 51° Northeast  Level Estimated
07:45AM 56.8669 15.3589 51° Northeast  Level Estimated
07:46AM 56.9364 15.5185 51° Northeast  Level Estimated
07:47AM 57.0056 15.6788 52° Northeast  Level Estimated
07:48AM 57.0747 15.8395 52° Northeast  Level Estimated
07:49AM 57.1435 16.0009 52° Northeast  Level Estimated
07:50AM 57.2122 16.1629 52° Northeast  Level Estimated
07:51AM 57.2806 16.3255 52° Northeast  Level Estimated
07:52AM 57.3488 16.4887 52° Northeast  Level Estimated
07:53AM 57.4168 16.6525 52° Northeast  Level Estimated
07:54AM 57.4846 16.8170 52° Northeast  Level Estimated
07:55AM 57.5521 16.9820 53° Northeast  Level Estimated
07:56AM 57.6195 17.1476 53° Northeast  Level Estimated
07:57AM 57.6866 17.3139 53° Northeast  Level Estimated
07:58AM 57.7509 17.4741 53° Northeast  Level Estimated
07:59AM 57.8149 17.6348 53° Northeast  Level Estimated
08:00AM 57.8787 17.7962 53° Northeast  Level Estimated
08:01AM 57.9424 17.9581 53° Northeast  Level Estimated
08:02AM 58.0058 18.1205 54° Northeast  Level Estimated
08:03AM 58.0690 18.2836 54° Northeast  Level Estimated
08:04AM 58.1320 18.4472 54° Northeast  Level Estimated
08:05AM 58.1948 18.6114 54° Northeast  Level Estimated
08:06AM 58.2574 18.7762 54° Northeast  Level Estimated
08:07AM 58.3198 18.9416 54° Northeast  Level Estimated
08:08AM 58.3819 19.1075 54° Northeast  Level Estimated
08:09AM 58.4439 19.2740 55° Northeast  Level Estimated
08:10AM 58.5056 19.4412 55° Northeast  Level Estimated
08:11AM 58.5671 19.6089 55° Northeast  Level Estimated
08:12AM 58.6284 19.7772 55° Northeast  Level Estimated
08:13AM 58.6895 19.9461 55° Northeast  Level Estimated
08:14AM 58.7503 20.1155 55° Northeast  Level Estimated
08:15AM 58.8109 20.2856 55° Northeast  Level Estimated
08:16AM 58.8713 20.4563 56° Northeast  Level Estimated
08:17AM 58.9315 20.6276 56° Northeast  Level Estimated
08:18AM 58.9915 20.7994 56° Northeast  Level Estimated
08:19AM 59.0512 20.9719 56° Northeast  Level Estimated
08:20AM 59.1107 21.1449 56° Northeast  Level Estimated
08:21AM 59.1699 21.3186 56° Northeast  Level Estimated
08:22AM 59.2290 21.4929 56° Northeast  Level Estimated
08:23AM 59.2877 21.6677 57° Northeast  Level Estimated
08:24AM 59.3463 21.8432 57° Northeast  Level Estimated
08:25AM 59.4046 22.0193 57° Northeast  Level Estimated
08:26AM 59.4627 22.1959 57° Northeast  Level Estimated
08:27AM 59.5205 22.3732 57° Northeast  Level Estimated
08:28AM 59.5782 22.5511 57° Northeast  Level Estimated
08:29AM 59.6355 22.7296 58° Northeast  Level Estimated
08:30AM 59.6926 22.9087 58° Northeast  Level Estimated
08:31AM 59.7495 23.0885 58° Northeast  Level Estimated
08:32AM 59.8061 23.2688 58° Northeast  Level Estimated
08:33AM 59.8625 23.4497 58° Northeast  Level Estimated
08:34AM 59.9186 23.6313 58° Northeast  Level Estimated
08:35AM 59.9745 23.8135 58° Northeast  Level Estimated
08:36AM 60.0301 23.9963 59° Northeast  Level Estimated
08:37AM 60.0855 24.1797 59° Northeast  Level Estimated
08:38AM 60.1406 24.3637 59° Northeast  Level Estimated
08:39AM 60.1955 24.5483 59° Northeast  Level Estimated
08:40AM 60.2501 24.7336 59° Northeast  Level Estimated
08:41AM 60.3045 24.9195 59° Northeast  Level Estimated
08:42AM 60.3172 24.9633 60° Northeast  Level Estimated
08:43AM 60.3172 24.9633 North  Level Estimated
08:44AM 60.3172 24.9633 North  Level Estimated
08:45AM 60.3172 24.9633 North  Level Estimated
08:46AM 60.3172 24.9633 North  Level Estimated
08:47AM 60.3172 24.9633 North  Level Estimated
08:48AM 60.3172 24.9633 North  Level Estimated
08:49AM 60.3172 24.9633 North  Level Estimated
08:50AM 60.3172 24.9633 North  Level Estimated
08:51AM 60.3172 24.9633 North  Level Estimated
08:52AM 60.3172 24.9633 North  Level Estimated